Time;durP1;ratioP1;P1;durP2;ratioP2;P2;SDS_P1;SDS_P2;PMS_P1;PMS_P2;Temp;Humidity;BMP_temperature;BMP_pressure;BME280_temperature;BME280_humidity;BME280_pressure;Samples;Min_cycle;Max_cycle;Signal;HPM_P1;HPM_P2
2023/01/31 00:02:01;;;;;;;21.15;3.40;;;6.30;99.90;;;;;;5036218;28;20018;-72
2023/01/31 00:04:27;;;;;;;13.27;2.85;;;6.30;99.90;;;;;;5034100;28;20636;-72
2023/01/31 00:06:52;;;;;;;17.30;4.22;;;6.20;99.90;;;;;;5033604;28;20096;-72
2023/01/31 00:09:19;;;;;;;20.63;3.03;;;6.10;99.90;;;;;;5033513;28;20064;-72
2023/01/31 00:11:44;;;;;;;20.23;3.10;;;6.00;99.90;;;;;;5033848;28;20029;-72
2023/01/31 00:14:17;;;;;;;10.48;3.05;;;5.90;99.90;;;;;;5032697;28;20374;-72
2023/01/31 00:16:43;;;;;;;16.52;3.33;;;6.00;99.90;;;;;;5033077;28;20116;-72
2023/01/31 00:19:11;;;;;;;19.13;3.38;;;6.10;99.90;;;;;;5032931;28;20033;-72
2023/01/31 00:21:42;;;;;;;18.02;3.03;;;6.10;99.90;;;;;;5032627;28;20025;-72
2023/01/31 00:24:08;;;;;;;14.30;2.88;;;6.20;99.90;;;;;;5033304;28;20408;-72
2023/01/31 00:26:34;;;;;;;12.43;3.40;;;6.20;99.90;;;;;;5033061;28;20105;-72
2023/01/31 00:29:01;;;;;;;18.20;2.83;;;6.20;99.90;;;;;;5035095;28;20023;-72
2023/01/31 00:31:29;;;;;;;14.32;2.47;;;6.10;99.90;;;;;;5034653;28;20495;-73
2023/01/31 00:33:56;;;;;;;12.25;3.13;;;6.10;99.90;;;;;;5056648;22;20041;-67
2023/01/31 00:36:25;;;;;;;17.48;3.13;;;6.10;99.90;;;;;;5033514;28;20029;-67
2023/01/31 00:38:53;;;;;;;13.05;2.47;;;6.00;99.90;;;;;;5033720;28;20056;-67
2023/01/31 00:41:20;;;;;;;10.77;2.83;;;6.00;99.90;;;;;;5033807;28;20098;-67
2023/01/31 00:43:46;;;;;;;13.35;2.40;;;6.00;99.90;;;;;;5032204;28;20071;-68
2023/01/31 00:46:11;;;;;;;16.17;2.80;;;6.00;99.90;;;;;;5036479;28;20037;-69
2023/01/31 00:48:37;;;;;;;8.90;1.95;;;6.00;99.90;;;;;;5033877;28;20026;-69
2023/01/31 00:51:03;;;;;;;12.95;2.63;;;6.00;99.90;;;;;;5034261;28;20041;-69
2023/01/31 00:53:29;;;;;;;14.52;2.58;;;6.00;99.90;;;;;;5032676;28;20037;-69
2023/01/31 00:56:06;;;;;;;17.25;3.08;;;6.10;99.90;;;;;;5033519;28;20021;-69
2023/01/31 00:58:32;;;;;;;16.92;2.30;;;6.10;99.90;;;;;;5034107;28;20020;-68
2023/01/31 01:01:06;;;;;;;6.68;2.03;;;6.00;99.90;;;;;;5032373;28;20053;-68
2023/01/31 01:03:32;;;;;;;11.50;2.33;;;6.00;99.90;;;;;;5032074;28;20503;-68
2023/01/31 01:05:58;;;;;;;16.25;2.92;;;5.90;99.90;;;;;;5032079;28;20065;-68
2023/01/31 01:08:23;;;;;;;27.05;3.80;;;5.90;99.90;;;;;;5032451;28;20029;-68
2023/01/31 01:10:49;;;;;;;11.73;2.50;;;5.90;99.90;;;;;;5033277;28;20052;-68
2023/01/31 01:13:14;;;;;;;17.08;2.40;;;5.90;99.90;;;;;;5032054;28;20017;-68
2023/01/31 01:15:40;;;;;;;13.55;2.47;;;5.80;99.90;;;;;;5033893;28;20036;-68
2023/01/31 01:18:05;;;;;;;16.92;2.47;;;5.80;99.90;;;;;;5033063;28;20028;-68
2023/01/31 01:20:33;;;;;;;7.47;2.53;;;5.70;99.90;;;;;;5032516;28;20430;-68
2023/01/31 01:22:58;;;;;;;9.98;2.05;;;5.70;99.90;;;;;;5033481;28;20035;-68
2023/01/31 01:25:24;;;;;;;14.25;4.38;;;5.60;99.90;;;;;;5031826;28;20113;-68
2023/01/31 01:27:49;;;;;;;14.43;3.15;;;5.70;99.90;;;;;;5034408;28;20120;-68
2023/01/31 01:30:15;;;;;;;14.63;2.70;;;5.80;99.90;;;;;;5035981;28;20025;-68
2023/01/31 01:32:41;;;;;;;21.50;2.20;;;5.70;99.90;;;;;;5035942;28;20022;-67
2023/01/31 01:35:08;;;;;;;9.98;2.58;;;5.70;99.90;;;;;;5036470;28;20040;-67
2023/01/31 01:37:33;;;;;;;11.73;2.17;;;5.60;99.90;;;;;;5035513;28;20102;-67
2023/01/31 01:39:59;;;;;;;10.38;2.15;;;5.50;99.90;;;;;;5035579;28;20041;-69
2023/01/31 01:42:25;;;;;;;19.58;3.05;;;5.40;99.90;;;;;;5035357;28;20025;-69
2023/01/31 01:44:59;;;;;;;11.27;2.83;;;5.40;99.90;;;;;;5036534;28;20026;-69
2023/01/31 01:47:49;;;;;;;12.77;2.45;;;5.40;99.90;;;;;;5036179;28;20021;-69
2023/01/31 01:50:33;;;;;;;20.35;3.47;;;5.40;99.90;;;;;;5039807;28;20025;-70
2023/01/31 01:53:12;;;;;;;21.15;3.33;;;5.30;99.90;;;;;;5037099;28;20068;-69
2023/01/31 01:56:16;;;;;;;13.27;3.25;;;5.40;99.90;;;;;;5037822;28;20119;-69
2023/01/31 01:58:51;;;;;;;11.90;3.17;;;5.40;99.90;;;;;;4997234;28;20045;-69
2023/01/31 02:01:17;;;;;;;20.48;2.60;;;5.40;99.90;;;;;;4979998;28;20117;-69
2023/01/31 02:03:44;;;;;;;13.38;2.53;;;5.40;99.90;;;;;;4981159;28;20065;-68
2023/01/31 02:06:10;;;;;;;15.85;3.05;;;5.40;99.90;;;;;;4995878;28;20033;-68
2023/01/31 02:08:37;;;;;;;14.75;2.38;;;5.40;99.90;;;;;;4980552;28;20133;-69
2023/01/31 02:11:28;;;;;;;17.20;3.25;;;5.40;99.90;;;;;;4979801;28;20100;-69
2023/01/31 02:14:08;;;;;;;10.77;3.13;;;5.40;99.90;;;;;;4979652;28;20031;-68
2023/01/31 02:16:34;;;;;;;11.45;2.95;;;5.40;99.90;;;;;;4980873;28;20084;-68
2023/01/31 02:19:01;;;;;;;10.85;2.53;;;5.40;99.90;;;;;;4979805;28;20116;-68
2023/01/31 02:21:41;;;;;;;20.10;2.83;;;5.30;99.90;;;;;;4980123;28;20090;-68
2023/01/31 02:24:16;;;;;;;16.58;2.75;;;5.20;99.90;;;;;;4978703;28;20027;-68
2023/01/31 02:27:31;;;;;;;18.58;2.97;;;5.20;99.90;;;;;;4979859;28;20053;-68
2023/01/31 02:30:15;;;;;;;19.17;3.47;;;5.30;99.90;;;;;;4995566;28;20038;-68
2023/01/31 02:32:51;;;;;;;9.85;2.47;;;5.20;99.90;;;;;;4995032;28;20031;-68
2023/01/31 02:35:30;;;;;;;20.77;3.13;;;5.20;99.90;;;;;;5031338;28;20038;-69
2023/01/31 02:38:17;;;;;;;6.63;2.38;;;5.20;99.90;;;;;;5036140;28;20021;-69
2023/01/31 02:41:03;;;;;;;9.20;2.50;;;5.20;99.90;;;;;;5040539;28;20022;-69
2023/01/31 02:46:52;;;;;;;10.15;2.53;;;5.10;99.90;;;;;;5036636;28;20500;-67
2023/01/31 02:49:34;;;;;;;17.30;2.45;;;5.00;99.90;;;;;;5036609;28;20140;-67
2023/01/31 02:52:20;;;;;;;;;;;5.00;99.90;;;;;;5036158;28;20025;-67
2023/01/31 02:58:05;;;;;;;14.32;3.08;;;4.90;99.90;;;;;;5028119;28;20041;-67
2023/01/31 03:00:34;;;;;;;16.48;2.10;;;4.90;99.90;;;;;;5036708;28;20028;-68
2023/01/31 03:03:00;;;;;;;22.65;2.67;;;4.90;99.90;;;;;;5036056;28;20082;-68
2023/01/31 03:05:25;;;;;;;18.48;2.90;;;5.10;99.90;;;;;;5034849;28;20384;-68
2023/01/31 03:08:04;;;;;;;11.88;2.35;;;5.10;99.90;;;;;;5034854;28;20025;-68
2023/01/31 03:10:58;;;;;;;10.90;2.85;;;5.20;99.90;;;;;;5035729;28;20021;-68
2023/01/31 03:13:55;;;;;;;12.13;1.90;;;5.10;99.90;;;;;;5034184;28;20492;-68
2023/01/31 03:19:42;;;;;;;11.02;1.77;;;5.20;99.90;;;;;;5035322;28;20082;-68
2023/01/31 03:22:17;;;;;;;9.23;2.17;;;5.20;99.90;;;;;;5035187;28;20033;-68
2023/01/31 03:24:46;;;;;;;7.93;1.83;;;5.30;99.90;;;;;;5033372;28;20491;-67
2023/01/31 03:27:11;;;;;;;6.88;1.73;;;5.20;99.90;;;;;;5033491;28;20021;-67
2023/01/31 03:29:38;;;;;;;6.15;1.50;;;5.20;99.90;;;;;;5033273;28;20025;-67
2023/01/31 03:32:12;;;;;;;4.88;1.17;;;5.10;99.90;;;;;;5033301;28;20025;-67
2023/01/31 03:34:38;;;;;;;4.85;1.10;;;5.10;99.90;;;;;;5033166;28;20033;-67
2023/01/31 03:37:27;;;;;;;9.32;1.13;;;5.10;99.90;;;;;;5033916;28;20029;-67
2023/01/31 03:39:58;;;;;;;3.10;0.73;;;5.20;99.90;;;;;;5033349;28;20072;-68
2023/01/31 03:42:41;;;;;;;7.18;1.25;;;5.10;99.90;;;;;;5033142;28;20052;-68
2023/01/31 03:45:28;;;;;;;8.38;0.90;;;5.10;99.90;;;;;;5034378;28;20029;-68
2023/01/31 03:47:56;;;;;;;10.50;1.30;;;5.10;99.90;;;;;;5033136;28;20060;-68
2023/01/31 03:50:29;;;;;;;8.77;1.50;;;5.00;99.90;;;;;;5032564;28;20025;-68
2023/01/31 03:53:07;;;;;;;7.30;1.10;;;4.90;99.90;;;;;;5033911;28;20061;-68
2023/01/31 03:55:58;;;;;;;5.97;1.35;;;4.90;99.90;;;;;;5034271;28;20085;-68
2023/01/31 03:58:28;;;;;;;5.82;1.20;;;4.90;99.90;;;;;;5014063;28;20036;-69
2023/01/31 04:00:57;;;;;;;9.80;1.52;;;4.90;99.90;;;;;;5037163;28;20120;-68
2023/01/31 04:03:42;;;;;;;6.07;0.95;;;5.00;99.90;;;;;;5032712;28;20057;-68
2023/01/31 04:06:09;;;;;;;8.10;1.50;;;5.00;99.90;;;;;;5032680;28;20032;-67
2023/01/31 04:08:35;;;;;;;9.25;1.38;;;5.00;99.90;;;;;;5033826;28;20060;-67
2023/01/31 04:11:07;;;;;;;9.32;3.00;;;5.00;99.90;;;;;;5032879;28;20060;-67
2023/01/31 04:13:33;;;;;;;9.55;1.50;;;5.00;99.90;;;;;;5032472;28;20103;-67
2023/01/31 04:15:59;;;;;;;19.70;2.25;;;5.00;99.90;;;;;;5034210;28;20025;-67
2023/01/31 04:18:25;;;;;;;11.85;1.67;;;5.00;99.90;;;;;;5032447;28;20029;-67
2023/01/31 04:20:50;;;;;;;7.63;1.45;;;5.00;99.90;;;;;;5032764;28;20024;-67
2023/01/31 04:23:17;;;;;;;18.35;2.17;;;4.90;99.90;;;;;;5033593;28;20029;-67
2023/01/31 04:25:43;;;;;;;13.35;2.05;;;4.90;99.90;;;;;;5033697;28;20108;-67
2023/01/31 04:28:09;;;;;;;21.05;2.50;;;4.90;99.90;;;;;;5033816;28;20061;-67
2023/01/31 04:30:34;;;;;;;12.10;2.00;;;4.90;99.90;;;;;;5033795;28;20021;-67
2023/01/31 04:33:00;;;;;;;14.07;2.83;;;4.90;99.90;;;;;;5033194;28;20106;-67
2023/01/31 04:35:25;;;;;;;7.40;2.40;;;4.90;99.90;;;;;;5032563;28;20079;-67
2023/01/31 04:37:51;;;;;;;12.88;1.90;;;4.90;99.90;;;;;;5033738;28;20030;-69
2023/01/31 04:40:17;;;;;;;21.02;3.03;;;4.80;99.90;;;;;;5033358;28;20022;-69
2023/01/31 04:42:42;;;;;;;17.90;2.85;;;4.80;99.90;;;;;;5033450;28;20083;-69
2023/01/31 04:45:08;;;;;;;11.77;2.13;;;4.80;99.90;;;;;;5032088;28;20448;-69
2023/01/31 04:47:34;;;;;;;13.63;2.10;;;4.80;99.90;;;;;;5032041;28;20036;-69
2023/01/31 04:49:59;;;;;;;8.02;1.55;;;4.90;99.90;;;;;;5032056;28;20373;-67
2023/01/31 04:52:25;;;;;;;10.05;2.28;;;4.90;99.90;;;;;;5031983;28;20087;-67
2023/01/31 04:54:50;;;;;;;13.85;2.85;;;4.80;99.90;;;;;;5031874;28;20026;-67
2023/01/31 04:57:16;;;;;;;11.02;1.88;;;4.80;99.90;;;;;;5032534;28;20021;-68
2023/01/31 04:59:41;;;;;;;9.90;2.17;;;4.70;99.90;;;;;;5033254;28;20063;-67
2023/01/31 05:02:07;;;;;;;11.32;2.13;;;4.40;99.90;;;;;;5031968;28;20025;-67
2023/01/31 05:04:33;;;;;;;11.88;1.98;;;4.30;99.90;;;;;;5036814;28;20022;-67
2023/01/31 05:06:58;;;;;;;11.75;2.17;;;4.30;99.90;;;;;;5036440;28;20033;-67
2023/01/31 05:09:24;;;;;;;20.80;2.72;;;4.30;99.90;;;;;;5035897;28;20033;-67
2023/01/31 05:11:50;;;;;;;10.10;2.45;;;4.30;99.90;;;;;;5036720;28;20026;-67
2023/01/31 05:14:17;;;;;;;11.95;1.85;;;4.30;99.90;;;;;;5035787;28;20029;-67
2023/01/31 05:16:46;;;;;;;11.90;2.10;;;4.30;99.90;;;;;;5035733;28;20032;-67
2023/01/31 05:19:14;;;;;;;12.30;2.38;;;4.40;99.90;;;;;;5037026;28;20021;-67
2023/01/31 05:21:59;;;;;;;25.60;2.75;;;4.40;99.90;;;;;;5037011;28;20100;-67
2023/01/31 05:24:27;;;;;;;14.68;2.60;;;4.40;99.90;;;;;;5036428;28;20049;-67
2023/01/31 05:26:57;;;;;;;14.10;2.40;;;4.40;99.90;;;;;;5035591;28;20108;-67
2023/01/31 05:29:24;;;;;;;11.70;2.45;;;4.30;99.90;;;;;;5036479;28;20026;-67
2023/01/31 05:31:51;;;;;;;14.57;2.40;;;4.20;99.90;;;;;;5036427;28;20021;-67
2023/01/31 05:34:16;;;;;;;10.73;1.55;;;4.10;99.90;;;;;;5036912;28;20068;-67
2023/01/31 05:36:42;;;;;;;11.55;2.25;;;4.20;99.90;;;;;;5036239;28;20021;-67
2023/01/31 05:39:08;;;;;;;8.90;2.22;;;4.30;99.90;;;;;;5035489;28;20017;-67
2023/01/31 05:41:33;;;;;;;9.68;1.88;;;4.30;99.90;;;;;;5035386;28;20025;-67
2023/01/31 05:43:59;;;;;;;17.55;1.98;;;4.30;99.90;;;;;;5035265;28;20044;-67
2023/01/31 05:46:24;;;;;;;12.63;2.17;;;4.20;99.90;;;;;;5036100;28;20018;-67
2023/01/31 05:48:50;;;;;;;14.65;2.35;;;4.20;99.90;;;;;;5035144;28;20048;-67
2023/01/31 05:51:15;;;;;;;20.17;3.08;;;4.20;99.90;;;;;;5036334;28;20025;-67
2023/01/31 05:53:41;;;;;;;14.93;1.80;;;4.30;99.90;;;;;;5035076;28;20030;-67
2023/01/31 05:56:06;;;;;;;12.02;1.85;;;4.30;99.90;;;;;;5036297;28;20029;-67
2023/01/31 05:58:32;;;;;;;12.82;2.42;;;4.40;99.90;;;;;;5035069;28;20018;-67
2023/01/31 06:00:57;;;;;;;12.77;2.05;;;4.40;99.90;;;;;;5036283;28;20022;-67
2023/01/31 06:03:23;;;;;;;21.63;2.80;;;4.40;99.90;;;;;;5035369;28;20157;-67
2023/01/31 06:05:55;;;;;;;13.90;2.25;;;4.40;99.90;;;;;;5035864;28;20026;-67
2023/01/31 06:08:20;;;;;;;15.00;2.72;;;4.40;99.90;;;;;;5034839;28;20112;-67
2023/01/31 06:10:46;;;;;;;11.90;2.33;;;4.40;99.90;;;;;;5034833;28;20475;-67
2023/01/31 06:13:11;;;;;;;9.98;1.90;;;4.40;99.90;;;;;;5035744;28;20025;-67
2023/01/31 06:16:14;;;;;;;16.77;2.55;;;4.40;99.90;;;;;;5034214;28;20034;-67
2023/01/31 06:18:39;;;;;;;8.98;1.58;;;4.40;99.90;;;;;;5036222;28;20112;-67
2023/01/31 06:21:05;;;;;;;11.32;2.08;;;4.40;99.90;;;;;;5035791;28;20101;-67
2023/01/31 06:23:33;;;;;;;12.02;2.17;;;4.40;99.90;;;;;;5036291;28;20022;-67
2023/01/31 06:25:59;;;;;;;17.52;2.10;;;4.40;99.90;;;;;;5034557;28;20087;-67
2023/01/31 06:28:24;;;;;;;19.17;2.15;;;4.30;99.90;;;;;;5035353;28;20061;-67
2023/01/31 06:30:50;;;;;;;9.73;2.38;;;4.30;99.90;;;;;;5034439;28;20057;-67
2023/01/31 06:33:15;;;;;;;18.40;2.28;;;4.30;99.90;;;;;;5036167;28;20124;-67
2023/01/31 06:35:41;;;;;;;7.18;1.77;;;4.20;99.90;;;;;;5058225;22;20092;-72
2023/01/31 06:38:07;;;;;;;14.63;2.63;;;4.20;99.90;;;;;;5035040;28;20025;-72
2023/01/31 06:40:34;;;;;;;7.85;1.75;;;4.20;99.90;;;;;;5034769;28;20022;-71
2023/01/31 06:43:00;;;;;;;18.58;3.80;;;4.20;99.90;;;;;;5035470;28;20022;-72
2023/01/31 06:45:25;;;;;;;12.07;2.70;;;4.20;99.90;;;;;;5034504;28;20021;-72
2023/01/31 06:47:51;;;;;;;11.05;1.88;;;4.30;99.90;;;;;;5034162;28;20048;-72
2023/01/31 06:50:17;;;;;;;15.38;2.63;;;4.30;99.90;;;;;;5034150;28;20037;-72
2023/01/31 06:52:42;;;;;;;13.52;2.13;;;4.30;99.90;;;;;;5035462;28;20052;-72
2023/01/31 06:55:08;;;;;;;10.43;2.17;;;4.30;99.90;;;;;;5033795;28;20026;-72
2023/01/31 06:57:34;;;;;;;9.65;2.55;;;4.30;99.90;;;;;;5034857;28;20028;-72
2023/01/31 07:00:18;;;;;;;14.40;2.30;;;4.30;99.90;;;;;;5034557;28;20021;-71
2023/01/31 07:02:45;;;;;;;16.27;2.88;;;4.20;99.90;;;;;;5034660;28;20018;-71
2023/01/31 07:05:10;;;;;;;15.93;2.80;;;4.10;99.90;;;;;;5033711;28;20036;-72
2023/01/31 07:07:36;;;;;;;13.05;2.53;;;4.10;99.90;;;;;;5033912;28;20181;-72
2023/01/31 07:10:02;;;;;;;13.00;2.90;;;4.10;99.90;;;;;;5033796;28;20032;-71
2023/01/31 07:12:27;;;;;;;10.35;2.45;;;4.10;99.90;;;;;;5034958;28;20183;-71
2023/01/31 07:14:53;;;;;;;15.90;2.92;;;4.10;99.90;;;;;;5033969;28;20028;-72
2023/01/31 07:17:20;;;;;;;15.18;2.30;;;4.00;99.90;;;;;;5034612;28;20025;-72
2023/01/31 07:19:45;;;;;;;18.73;3.08;;;4.00;99.90;;;;;;5035111;28;20025;-71
2023/01/31 07:22:11;;;;;;;10.73;2.28;;;4.00;99.90;;;;;;5034033;28;20022;-71
2023/01/31 07:24:36;;;;;;;11.23;2.40;;;4.00;99.90;;;;;;5033347;28;20104;-72
2023/01/31 07:27:02;;;;;;;18.33;3.33;;;4.00;99.90;;;;;;5032637;28;20039;-71
2023/01/31 07:29:27;;;;;;;13.35;2.83;;;4.00;99.90;;;;;;5033481;28;20032;-72
2023/01/31 07:31:53;;;;;;;10.95;3.03;;;4.00;99.90;;;;;;5033388;28;20033;-71
2023/01/31 07:34:21;;;;;;;13.60;2.83;;;4.10;99.90;;;;;;5033285;28;20033;-72
2023/01/31 07:36:50;;;;;;;9.70;2.97;;;4.10;99.90;;;;;;5033407;28;20022;-72
2023/01/31 07:39:16;;;;;;;12.50;3.80;;;4.10;99.90;;;;;;5033250;28;20071;-71
2023/01/31 07:41:42;;;;;;;11.13;2.33;;;4.10;99.90;;;;;;5033210;28;20024;-71
2023/01/31 07:44:10;;;;;;;16.70;2.95;;;4.20;99.90;;;;;;5033452;28;20025;-71
2023/01/31 07:46:36;;;;;;;12.82;2.42;;;4.20;99.90;;;;;;5033033;28;20091;-72
2023/01/31 07:49:02;;;;;;;18.70;3.25;;;4.30;99.90;;;;;;5033057;28;20021;-72
2023/01/31 07:51:28;;;;;;;11.57;2.25;;;4.30;99.90;;;;;;5032951;28;20032;-71
2023/01/31 07:53:55;;;;;;;16.65;2.80;;;4.30;99.90;;;;;;5033182;28;20037;-72
2023/01/31 07:56:20;;;;;;;19.05;4.22;;;4.30;99.90;;;;;;5033728;28;20032;-71
2023/01/31 07:58:48;;;;;;;20.25;3.50;;;4.40;99.90;;;;;;5032863;28;20022;-71
2023/01/31 08:04:00;;;;;;;10.60;2.83;;;4.30;99.90;;;;;;5034512;28;20036;-71
2023/01/31 08:06:28;;;;;;;18.50;3.40;;;4.40;99.90;;;;;;5033075;28;20025;-71
2023/01/31 08:08:54;;;;;;;18.88;3.55;;;4.40;99.90;;;;;;5032699;28;20036;-70
2023/01/31 08:11:20;;;;;;;15.23;3.45;;;4.20;99.90;;;;;;5032611;28;20029;-71
2023/01/31 08:13:45;;;;;;;25.38;4.00;;;4.20;99.90;;;;;;5032524;28;20026;-71
2023/01/31 08:16:12;;;;;;;12.57;4.40;;;4.30;99.90;;;;;;5032586;28;20140;-71
2023/01/31 08:18:38;;;;;;;8.82;3.38;;;4.30;99.90;;;;;;5033039;28;20022;-71
2023/01/31 08:21:04;;;;;;;17.95;3.30;;;4.30;99.90;;;;;;5032712;28;20029;-71
2023/01/31 08:23:30;;;;;;;9.88;3.35;;;4.30;99.90;;;;;;5032734;28;20021;-70
2023/01/31 08:26:00;;;;;;;16.23;3.20;;;4.30;99.90;;;;;;5032275;28;20035;-70
2023/01/31 08:28:26;;;;;;;13.32;3.08;;;4.30;99.90;;;;;;5033300;28;20029;-71
2023/01/31 08:30:51;;;;;;;27.40;4.00;;;4.40;99.90;;;;;;5032326;28;20092;-71
2023/01/31 08:33:17;;;;;;;14.60;3.78;;;4.40;99.90;;;;;;5032395;28;20037;-71
2023/01/31 08:35:42;;;;;;;10.85;3.65;;;4.40;99.90;;;;;;5032277;28;20045;-71
2023/01/31 08:38:08;;;;;;;12.38;4.10;;;4.40;99.90;;;;;;5032055;28;20021;-70
2023/01/31 08:40:33;;;;;;;12.65;4.00;;;4.30;99.90;;;;;;5032315;28;20036;-71
2023/01/31 08:42:59;;;;;;;18.13;3.92;;;4.30;99.90;;;;;;5032479;28;20022;-71
2023/01/31 08:45:29;;;;;;;18.88;3.85;;;4.30;99.90;;;;;;5033378;28;20036;-71
2023/01/31 08:47:56;;;;;;;15.02;4.55;;;4.30;99.90;;;;;;5032688;28;20376;-70
2023/01/31 08:50:23;;;;;;;20.80;4.97;;;4.40;99.90;;;;;;5032098;28;20072;-71
2023/01/31 08:52:57;;;;;;;13.43;3.85;;;4.40;99.90;;;;;;5032388;28;20033;-71
2023/01/31 08:55:23;;;;;;;14.68;4.47;;;4.40;99.90;;;;;;5031868;28;20104;-71
2023/01/31 08:57:50;;;;;;;13.82;3.60;;;4.40;99.90;;;;;;5033264;28;20034;-71
2023/01/31 09:00:17;;;;;;;15.75;4.88;;;4.40;99.90;;;;;;5032842;28;20053;-71
2023/01/31 09:02:45;;;;;;;14.82;3.30;;;4.40;99.90;;;;;;5031929;28;20052;-71
2023/01/31 09:05:11;;;;;;;11.68;3.83;;;4.50;99.90;;;;;;5033225;28;20020;-71
2023/01/31 09:07:37;;;;;;;15.85;3.78;;;4.40;99.90;;;;;;5033155;28;20021;-71
2023/01/31 09:10:03;;;;;;;17.17;4.10;;;4.50;99.90;;;;;;5032010;28;20039;-72
2023/01/31 09:12:28;;;;;;;19.48;3.92;;;4.50;99.90;;;;;;5032094;28;20175;-72
2023/01/31 09:14:54;;;;;;;15.32;3.13;;;4.60;99.90;;;;;;5031698;28;20033;-72
2023/01/31 09:17:19;;;;;;;19.48;3.95;;;4.60;99.90;;;;;;5032179;28;20108;-72
2023/01/31 09:19:47;;;;;;;9.07;3.20;;;4.50;99.90;;;;;;5032848;28;20026;-71
2023/01/31 09:22:12;;;;;;;12.85;2.92;;;4.50;99.90;;;;;;5033048;28;20014;-71
2023/01/31 09:24:38;;;;;;;12.48;4.40;;;4.50;99.90;;;;;;5031662;28;20024;-72
2023/01/31 09:27:04;;;;;;;10.65;2.67;;;4.50;99.90;;;;;;5031828;28;20025;-71
2023/01/31 09:29:29;;;;;;;14.45;3.55;;;4.50;99.90;;;;;;5031788;28;20377;-72
2023/01/31 09:31:55;;;;;;;6.85;2.95;;;4.50;99.90;;;;;;5032234;28;20052;-72
2023/01/31 09:34:21;;;;;;;21.95;3.97;;;4.50;99.90;;;;;;5032788;28;20045;-72
2023/01/31 09:36:47;;;;;;;10.52;3.33;;;4.50;99.90;;;;;;5032466;28;20116;-72
2023/01/31 09:39:13;;;;;;;18.73;3.53;;;4.40;99.90;;;;;;5033227;28;20021;-72
2023/01/31 09:41:52;;;;;;;17.33;3.65;;;4.40;99.90;;;;;;5031681;28;20036;-72
2023/01/31 09:44:37;;;;;;;12.20;3.10;;;4.50;99.90;;;;;;5032082;28;20021;-72
2023/01/31 09:47:27;;;;;;;24.17;4.75;;;4.60;99.90;;;;;;5032829;28;20500;-72
2023/01/31 09:50:06;;;;;;;12.07;3.38;;;4.60;99.90;;;;;;5033827;28;20036;-72
2023/01/31 09:52:32;;;;;;;12.52;3.70;;;4.70;99.90;;;;;;5036488;28;20101;-72
2023/01/31 09:54:58;;;;;;;11.82;3.58;;;4.60;99.90;;;;;;5035220;28;20112;-72
2023/01/31 09:57:47;;;;;;;15.35;3.35;;;4.60;99.90;;;;;;5035141;28;20139;-72
2023/01/31 10:00:24;;;;;;;10.95;2.80;;;4.70;99.90;;;;;;5035106;28;20051;-72
2023/01/31 10:03:12;;;;;;;11.02;3.85;;;4.70;99.90;;;;;;5036280;28;20013;-72
2023/01/31 10:06:17;;;;;;;15.77;4.15;;;4.70;99.90;;;;;;5034886;28;20026;-72
2023/01/31 10:09:03;;;;;;;17.33;4.30;;;4.70;99.90;;;;;;5036388;28;20029;-72
2023/01/31 10:11:35;;;;;;;8.93;3.00;;;4.80;99.90;;;;;;5036104;28;20031;-72
2023/01/31 10:14:10;;;;;;;15.45;3.70;;;4.90;99.90;;;;;;5035535;28;20021;-72
2023/01/31 10:16:46;;;;;;;17.80;3.28;;;4.90;99.90;;;;;;5034584;28;20025;-72
2023/01/31 10:19:21;;;;;;;17.05;3.88;;;4.90;99.90;;;;;;5035008;28;20029;-72
2023/01/31 10:21:53;;;;;;;21.45;4.25;;;4.90;99.90;;;;;;5035576;28;20075;-72
2023/01/31 10:24:38;;;;;;;14.55;2.92;;;5.00;99.90;;;;;;5035875;28;20558;-72
2023/01/31 10:27:12;;;;;;;14.98;3.60;;;5.00;99.90;;;;;;5035913;28;20036;-72
2023/01/31 10:29:42;;;;;;;15.70;4.97;;;5.00;99.90;;;;;;5034604;28;20022;-72
2023/01/31 10:32:20;;;;;;;16.48;4.40;;;5.00;99.90;;;;;;5035745;28;20025;-72
2023/01/31 10:35:00;;;;;;;14.35;3.50;;;5.10;99.90;;;;;;5034546;28;20125;-72
2023/01/31 10:38:01;;;;;;;12.13;3.10;;;4.90;99.90;;;;;;5035075;28;20053;-72
2023/01/31 10:40:37;;;;;;;13.25;3.08;;;4.90;99.90;;;;;;5034171;28;20125;-72
2023/01/31 10:43:15;;;;;;;14.23;3.15;;;4.90;99.90;;;;;;5035152;28;20079;-72
2023/01/31 10:45:40;;;;;;;14.40;3.58;;;4.80;99.90;;;;;;5034171;28;20021;-72
2023/01/31 10:48:19;;;;;;;18.23;4.53;;;4.90;99.90;;;;;;5034224;28;20116;-72
2023/01/31 10:51:25;;;;;;;16.10;3.38;;;4.90;99.90;;;;;;5035421;28;20484;-72
2023/01/31 10:54:06;;;;;;;19.60;4.05;;;4.90;99.90;;;;;;5035489;28;20080;-71
2023/01/31 10:56:40;;;;;;;12.40;3.05;;;4.90;99.90;;;;;;5034192;28;20026;-71
2023/01/31 10:59:29;;;;;;;19.50;3.40;;;4.80;99.90;;;;;;5035611;28;20083;-72
2023/01/31 11:01:55;;;;;;;7.43;2.58;;;4.80;99.90;;;;;;5035259;28;20025;-72
2023/01/31 11:04:33;;;;;;;19.83;5.20;;;4.90;99.90;;;;;;5033926;28;20021;-72
2023/01/31 11:07:01;;;;;;;16.95;4.80;;;4.90;99.90;;;;;;5033852;28;20044;-72
2023/01/31 11:09:31;;;;;;;41.17;13.98;;;4.90;99.90;;;;;;5033775;28;20567;-72
2023/01/31 11:12:04;;;;;;;25.17;6.43;;;5.00;99.90;;;;;;5034078;28;20029;-72
2023/01/31 11:14:30;;;;;;;16.02;5.50;;;5.00;99.90;;;;;;5034519;28;20026;-72
2023/01/31 11:17:16;;;;;;;10.73;3.83;;;5.00;99.90;;;;;;5033732;28;20025;-72
2023/01/31 11:19:50;;;;;;;15.80;3.78;;;5.00;99.90;;;;;;5033670;28;20022;-72
2023/01/31 11:22:31;;;;;;;14.70;3.63;;;5.00;99.90;;;;;;5034904;28;20042;-72
2023/01/31 11:24:58;;;;;;;18.83;4.65;;;5.10;99.90;;;;;;5033413;28;20040;-72
2023/01/31 11:27:39;;;;;;;16.60;3.75;;;5.10;99.90;;;;;;5035023;28;20021;-72
2023/01/31 11:30:17;;;;;;;10.30;3.85;;;5.20;99.90;;;;;;5034186;28;20025;-72
2023/01/31 11:32:43;;;;;;;16.10;3.88;;;5.20;99.90;;;;;;5034520;28;20049;-72
2023/01/31 11:35:12;;;;;;;15.48;4.00;;;5.10;99.90;;;;;;5033321;28;20069;-72
2023/01/31 11:37:52;;;;;;;13.05;4.00;;;5.10;99.90;;;;;;5033223;28;20025;-72
2023/01/31 11:40:26;;;;;;;8.73;3.00;;;5.10;99.90;;;;;;5033822;28;20021;-72
2023/01/31 11:43:19;;;;;;;13.32;3.65;;;5.10;99.90;;;;;;5034592;28;20096;-72
2023/01/31 11:45:52;;;;;;;16.90;4.53;;;5.00;99.90;;;;;;5033028;28;20032;-72
2023/01/31 11:48:22;;;;;;;16.80;3.38;;;5.10;99.90;;;;;;5034367;28;20017;-72
2023/01/31 11:50:57;;;;;;;10.68;3.42;;;5.00;99.90;;;;;;5034252;28;20087;-72
2023/01/31 11:53:35;;;;;;;14.90;5.38;;;5.00;99.90;;;;;;5033297;28;20025;-72
2023/01/31 11:56:14;;;;;;;14.75;5.28;;;5.00;99.90;;;;;;5032749;28;20120;-71
2023/01/31 11:58:42;;;;;;;18.70;6.25;;;5.10;99.90;;;;;;5033234;28;20049;-72
2023/01/31 12:01:16;;;;;;;14.02;3.92;;;5.20;99.90;;;;;;5034027;28;20093;-72
2023/01/31 12:04:00;;;;;;;18.25;4.82;;;5.20;99.90;;;;;;5032674;28;20076;-72
2023/01/31 12:06:30;;;;;;;14.43;3.95;;;5.30;99.90;;;;;;5032622;28;20556;-72
2023/01/31 12:08:57;;;;;;;16.05;5.53;;;5.30;99.90;;;;;;5034151;28;20546;-72
2023/01/31 12:11:32;;;;;;;16.02;4.97;;;5.20;99.90;;;;;;5032293;28;20412;-72
2023/01/31 12:14:12;;;;;;;15.18;3.90;;;5.10;99.90;;;;;;5034213;28;20059;-72
2023/01/31 12:16:38;;;;;;;11.70;3.47;;;5.10;99.90;;;;;;5033809;28;20164;-72
2023/01/31 12:19:19;;;;;;;15.30;4.40;;;5.10;99.90;;;;;;5032474;28;20121;-72
2023/01/31 12:22:30;;;;;;;16.63;5.53;;;5.10;99.90;;;;;;5033803;28;20021;-72
2023/01/31 12:25:04;;;;;;;21.92;4.72;;;5.20;99.90;;;;;;5030125;28;20026;-72
2023/01/31 12:27:54;;;;;;;14.48;3.67;;;5.20;99.90;;;;;;5033920;28;20025;-72
2023/01/31 12:30:24;;;;;;;12.70;4.40;;;5.00;99.90;;;;;;5032409;28;20075;-72
2023/01/31 12:33:18;;;;;;;10.60;3.88;;;5.00;99.90;;;;;;5033608;28;20029;-72
2023/01/31 12:36:22;;;;;;;19.13;4.38;;;5.00;99.90;;;;;;5045358;22;20382;-69
2023/01/31 12:38:50;;;;;;;11.38;3.97;;;5.10;99.90;;;;;;5013911;28;20472;-70
2023/01/31 12:41:30;;;;;;;12.05;3.42;;;5.20;99.90;;;;;;5013997;28;20030;-70
2023/01/31 12:44:24;;;;;;;12.50;4.32;;;5.20;99.90;;;;;;5013715;28;20388;-70
2023/01/31 12:47:14;;;;;;;12.10;4.20;;;5.10;99.90;;;;;;4992769;28;20034;-70
2023/01/31 12:49:45;;;;;;;13.50;4.25;;;5.10;99.90;;;;;;4993970;28;20034;-70
2023/01/31 12:52:42;;;;;;;15.00;4.20;;;5.20;99.90;;;;;;4992789;28;20058;-70
2023/01/31 12:55:21;;;;;;;14.93;4.63;;;5.10;99.90;;;;;;4994291;28;20057;-70
2023/01/31 12:58:00;;;;;;;12.38;4.10;;;5.30;99.90;;;;;;4992752;28;20058;-70
2023/01/31 13:00:41;;;;;;;17.75;4.72;;;5.30;99.90;;;;;;4992653;28;20050;-70
2023/01/31 13:03:29;;;;;;;13.88;3.97;;;5.30;99.90;;;;;;4993529;28;20082;-70
2023/01/31 13:06:05;;;;;;;18.50;4.45;;;5.20;99.90;;;;;;4994200;28;20034;-70
2023/01/31 13:08:34;;;;;;;14.70;5.03;;;5.30;99.90;;;;;;4993865;28;20045;-70
2023/01/31 13:11:21;;;;;;;15.20;4.30;;;5.30;99.90;;;;;;4992619;28;20030;-70
2023/01/31 13:13:52;;;;;;;11.98;3.72;;;5.40;99.90;;;;;;4994111;28;20031;-70
2023/01/31 13:16:40;;;;;;;17.88;4.55;;;5.40;99.90;;;;;;4992493;28;20125;-70
2023/01/31 13:19:14;;;;;;;9.57;3.28;;;5.50;99.90;;;;;;4993897;28;20027;-70
2023/01/31 13:21:45;;;;;;;14.00;3.33;;;5.60;99.90;;;;;;4992746;28;20027;-70
2023/01/31 13:24:19;;;;;;;11.90;3.80;;;5.60;99.90;;;;;;4994534;28;20018;-70